Time;durP1;ratioP1;P1;durP2;ratioP2;P2;SDS_P1;SDS_P2;PMS_P1;PMS_P2;Temp;Humidity;BMP_temperature;BMP_pressure;BME280_temperature;BME280_humidity;BME280_pressure;Samples;Min_cycle;Max_cycle;Signal;HPM_P1;HPM_P2
2023/12/31 00:01:11;;;;;;;40.15;26.40;;;;;;;;;;6247822;28;20099;-74
2023/12/31 00:04:13;;;;;;;47.40;26.75;;;;;;;;;;6248132;28;20359;-74
2023/12/31 00:07:15;;;;;;;43.03;26.17;;;;;;;;;;6251770;28;21194;-75
2023/12/31 00:10:18;;;;;;;42.25;25.70;;;;;;;;;;6249466;28;20076;-75
2023/12/31 00:13:20;;;;;;;43.30;27.70;;;;;;;;;;6282049;28;20049;-75
2023/12/31 00:16:23;;;;;;;45.15;27.95;;;;;;;;;;6246167;28;20534;-75
2023/12/31 00:19:25;;;;;;;42.87;26.33;;;;;;;;;;6249287;28;20054;-75
2023/12/31 00:22:28;;;;;;;42.75;26.83;;;;;;;;;;6252152;28;20057;-75
2023/12/31 00:25:30;;;;;;;42.53;26.83;;;;;;;;;;6251764;28;20056;-74
2023/12/31 00:28:32;;;;;;;40.60;26.05;;;;;;;;;;6280836;28;20045;-74
2023/12/31 00:31:35;;;;;;;40.75;26.67;;;;;;;;;;6245448;28;20042;-74
2023/12/31 00:34:37;;;;;;;42.37;27.63;;;;;;;;;;6249289;28;20057;-74
2023/12/31 00:37:39;;;;;;;39.30;25.85;;;;;;;;;;6252346;28;20448;-75
2023/12/31 00:40:41;;;;;;;41.90;27.10;;;;;;;;;;6252277;28;20347;-74
2023/12/31 00:43:44;;;;;;;40.25;26.63;;;;;;;;;;6283328;28;20259;-75
2023/12/31 00:46:47;;;;;;;43.45;27.50;;;;;;;;;;6250290;28;20057;-74
2023/12/31 00:49:49;;;;;;;46.50;27.77;;;;;;;;;;6249235;28;20052;-75
2023/12/31 00:52:51;;;;;;;41.70;25.83;;;;;;;;;;6283806;28;20498;-75
2023/12/31 00:55:53;;;;;;;42.28;26.58;;;;;;;;;;6255193;28;20382;-74
2023/12/31 00:58:55;;;;;;;44.95;26.48;;;;;;;;;;6255818;28;20068;-74
2023/12/31 01:01:58;;;;;;;41.75;27.95;;;;;;;;;;6253418;28;20361;-74
2023/12/31 01:05:00;;;;;;;44.33;27.17;;;;;;;;;;6256003;28;20057;-75
2023/12/31 01:08:04;;;;;;;48.47;26.83;;;;;;;;;;6283678;28;20467;-74
2023/12/31 01:11:07;;;;;;;44.20;26.77;;;;;;;;;;6256443;28;20057;-74
2023/12/31 01:14:09;;;;;;;43.28;27.60;;;;;;;;;;6254041;28;20057;-74
2023/12/31 01:17:12;;;;;;;45.05;26.70;;;;;;;;;;6255563;28;20119;-74
2023/12/31 01:20:14;;;;;;;46.35;28.05;;;;;;;;;;6253203;28;20061;-75
2023/12/31 01:23:16;;;;;;;42.60;27.42;;;;;;;;;;6253609;28;20224;-74
2023/12/31 01:26:18;;;;;;;45.47;29.05;;;;;;;;;;6255152;28;20054;-74
2023/12/31 01:29:20;;;;;;;45.58;29.00;;;;;;;;;;6253222;28;20053;-75
2023/12/31 01:32:23;;;;;;;47.97;29.45;;;;;;;;;;6285806;28;20176;-74
2023/12/31 01:35:26;;;;;;;42.63;27.77;;;;;;;;;;6251112;28;20053;-74
2023/12/31 01:38:27;;;;;;;55.03;29.77;;;;;;;;;;6255498;28;20303;-75
2023/12/31 01:41:30;;;;;;;46.78;29.25;;;;;;;;;;6287396;28;20111;-74
2023/12/31 01:44:32;;;;;;;42.97;28.23;;;;;;;;;;6254797;28;20057;-74
2023/12/31 01:47:36;;;;;;;46.00;29.27;;;;;;;;;;6284943;28;20057;-75
2023/12/31 01:50:38;;;;;;;47.65;28.40;;;;;;;;;;6254979;28;20351;-75
2023/12/31 01:53:40;;;;;;;45.42;29.60;;;;;;;;;;6253904;28;20079;-75
2023/12/31 01:56:44;;;;;;;46.17;29.08;;;;;;;;;;6254780;28;20064;-75
2023/12/31 01:59:46;;;;;;;49.45;30.55;;;;;;;;;;6255444;28;20045;-74
2023/12/31 02:02:51;;;;;;;48.47;31.92;;;;;;;;;;6251273;28;20437;-74
2023/12/31 02:05:53;;;;;;;48.28;31.10;;;;;;;;;;6253235;28;20048;-74
2023/12/31 02:08:55;;;;;;;49.15;31.15;;;;;;;;;;6253060;28;20053;-75
2023/12/31 02:11:57;;;;;;;47.25;31.35;;;;;;;;;;6251172;28;20283;-74
2023/12/31 02:14:59;;;;;;;49.95;32.05;;;;;;;;;;6265918;28;20079;-74
2023/12/31 02:18:03;;;;;;;49.72;30.83;;;;;;;;;;6251480;28;20065;-75
2023/12/31 02:21:05;;;;;;;50.20;30.20;;;;;;;;;;6242513;28;20126;-74
2023/12/31 02:24:08;;;;;;;50.17;32.17;;;;;;;;;;6251510;28;20053;-75
2023/12/31 02:27:12;;;;;;;50.53;32.55;;;;;;;;;;6250836;28;20052;-75
2023/12/31 02:30:14;;;;;;;52.97;33.60;;;;;;;;;;6284478;28;20359;-76
2023/12/31 02:33:16;;;;;;;57.30;33.58;;;;;;;;;;6266392;28;20058;-74
2023/12/31 02:36:18;;;;;;;53.88;32.75;;;;;;;;;;6284275;28;20240;-75
2023/12/31 02:39:20;;;;;;;56.28;34.92;;;;;;;;;;6250819;28;20055;-74
2023/12/31 02:42:23;;;;;;;54.25;32.80;;;;;;;;;;6250325;28;20355;-75
2023/12/31 02:45:25;;;;;;;54.08;32.70;;;;;;;;;;6281910;28;20091;-75
2023/12/31 02:48:27;;;;;;;52.38;32.53;;;;;;;;;;6251453;28;20056;-76
2023/12/31 02:51:29;;;;;;;60.13;34.05;;;;;;;;;;6282941;28;20123;-75
2023/12/31 02:54:31;;;;;;;50.90;32.85;;;;;;;;;;6251207;28;20223;-74
2023/12/31 02:57:34;;;;;;;56.15;33.90;;;;;;;;;;6249671;28;20140;-73
2023/12/31 03:00:36;;;;;;;43.30;26.20;;;;;;;;;;6248881;28;20244;-74
2023/12/31 03:03:38;;;;;;;55.00;34.85;;;;;;;;;;6250543;28;20132;-73
2023/12/31 03:06:40;;;;;;;58.13;34.55;;;;;;;;;;6249717;28;20055;-74
2023/12/31 03:09:42;;;;;;;54.30;34.00;;;;;;;;;;6250134;28;20100;-74
2023/12/31 03:12:48;;;;;;;60.28;35.25;;;;;;;;;;6280515;28;20355;-74
2023/12/31 03:15:49;;;;;;;57.58;36.47;;;;;;;;;;6250985;28;20061;-74
2023/12/31 03:18:53;;;;;;;53.47;34.28;;;;;;;;;;6249952;28;20061;-73
2023/12/31 03:21:56;;;;;;;59.30;36.00;;;;;;;;;;6223611;28;20065;-74
2023/12/31 03:24:58;;;;;;;58.42;36.20;;;;;;;;;;6252051;28;20057;-74
2023/12/31 03:28:01;;;;;;;62.05;38.72;;;;;;;;;;6246863;28;20045;-74
2023/12/31 03:31:04;;;;;;;60.75;38.45;;;;;;;;;;6250145;28;20128;-74
2023/12/31 03:34:07;;;;;;;60.55;39.22;;;;;;;;;;6233213;28;20053;-73
2023/12/31 03:37:09;;;;;;;70.07;40.95;;;;;;;;;;6226924;28;20057;-74
2023/12/31 03:40:11;;;;;;;67.15;39.95;;;;;;;;;;6226010;28;20065;-74
2023/12/31 03:43:14;;;;;;;68.88;41.47;;;;;;;;;;6249619;28;20060;-74
2023/12/31 03:46:16;;;;;;;65.13;39.75;;;;;;;;;;6249420;28;20098;-74
2023/12/31 03:49:18;;;;;;;68.25;40.70;;;;;;;;;;6250817;28;20060;-75
2023/12/31 03:52:20;;;;;;;63.55;39.83;;;;;;;;;;6252161;28;20053;-74
2023/12/31 03:55:22;;;;;;;70.40;42.15;;;;;;;;;;6249870;28;20060;-74
2023/12/31 03:58:25;;;;;;;67.45;41.83;;;;;;;;;;6252548;28;20064;-74
2023/12/31 04:01:28;;;;;;;67.37;41.43;;;;;;;;;;6248941;28;20071;-75
2023/12/31 04:04:31;;;;;;;69.82;42.70;;;;;;;;;;6276231;28;20185;-73
2023/12/31 04:07:33;;;;;;;80.28;45.58;;;;;;;;;;6226252;28;20375;-73
2023/12/31 04:10:34;;;;;;;75.07;41.83;;;;;;;;;;6225955;28;20076;-75
2023/12/31 04:13:41;;;;;;;77.20;42.67;;;;;;;;;;6224352;28;20351;-75
2023/12/31 04:16:43;;;;;;;75.40;42.92;;;;;;;;;;6225107;28;20284;-74
2023/12/31 04:19:46;;;;;;;74.65;43.78;;;;;;;;;;6222880;28;20074;-75
2023/12/31 04:22:48;;;;;;;78.00;43.78;;;;;;;;;;6226029;28;20264;-75
2023/12/31 04:25:50;;;;;;;73.22;42.53;;;;;;;;;;6224353;28;20054;-75
2023/12/31 04:28:53;;;;;;;81.45;44.00;;;;;;;;;;6228330;28;20060;-75
2023/12/31 04:31:58;;;;;;;76.80;44.42;;;;;;;;;;6230513;28;20060;-75
2023/12/31 04:34:59;;;;;;;76.22;44.13;;;;;;;;;;6228915;28;20058;-74
2023/12/31 04:38:02;;;;;;;82.97;45.55;;;;;;;;;;6228825;28;20252;-75
2023/12/31 04:41:05;;;;;;;79.97;43.75;;;;;;;;;;6228093;28;20117;-74
2023/12/31 04:44:08;;;;;;;79.43;44.27;;;;;;;;;;6232145;28;20058;-72
2023/12/31 04:47:10;;;;;;;81.37;44.57;;;;;;;;;;6228851;28;20073;-75
2023/12/31 04:50:12;;;;;;;82.78;43.92;;;;;;;;;;6230626;28;20046;-74
2023/12/31 04:53:15;;;;;;;74.05;41.75;;;;;;;;;;6229533;28;20363;-74
2023/12/31 04:56:21;;;;;;;73.33;41.70;;;;;;;;;;6229273;28;20054;-74
2023/12/31 04:59:25;;;;;;;73.63;40.67;;;;;;;;;;6229380;28;21222;-73
2023/12/31 05:02:28;;;;;;;78.88;41.35;;;;;;;;;;6245086;28;20054;-73
2023/12/31 05:05:30;;;;;;;72.43;41.70;;;;;;;;;;6230213;28;20057;-74
2023/12/31 05:08:32;;;;;;;67.85;37.70;;;;;;;;;;6229836;28;20038;-74
2023/12/31 05:11:34;;;;;;;72.53;38.97;;;;;;;;;;6228462;28;20052;-74
2023/12/31 05:14:37;;;;;;;66.75;39.05;;;;;;;;;;6229193;28;20053;-74
2023/12/31 05:17:40;;;;;;;68.95;38.97;;;;;;;;;;6228642;28;20375;-74
2023/12/31 05:20:42;;;;;;;73.07;41.80;;;;;;;;;;6227597;28;20049;-74
2023/12/31 05:23:44;;;;;;;69.22;38.78;;;;;;;;;;6230407;28;20076;-75
2023/12/31 05:26:46;;;;;;;74.35;40.83;;;;;;;;;;6227167;28;20046;-75
2023/12/31 05:29:49;;;;;;;68.60;40.58;;;;;;;;;;6227518;28;20096;-74
2023/12/31 05:32:52;;;;;;;71.72;41.47;;;;;;;;;;6228763;28;20061;-74
2023/12/31 05:35:54;;;;;;;68.88;38.97;;;;;;;;;;6229933;28;20154;-74
2023/12/31 05:38:56;;;;;;;70.13;40.22;;;;;;;;;;6228389;28;20213;-74
2023/12/31 05:41:57;;;;;;;66.68;38.83;;;;;;;;;;6219662;28;20108;-73
2023/12/31 05:45:01;;;;;;;69.75;40.30;;;;;;;;;;6246408;28;20064;-74
2023/12/31 05:48:03;;;;;;;69.87;40.63;;;;;;;;;;6253045;28;20140;-75
2023/12/31 05:51:05;;;;;;;71.30;40.40;;;;;;;;;;6253771;28;20061;-74
2023/12/31 05:54:07;;;;;;;67.95;40.60;;;;;;;;;;6245155;28;20088;-73
2023/12/31 05:57:09;;;;;;;72.13;41.65;;;;;;;;;;6251287;28;20049;-75
2023/12/31 06:00:13;;;;;;;72.78;40.72;;;;;;;;;;6251987;28;20053;-74
2023/12/31 06:03:15;;;;;;;67.97;39.40;;;;;;;;;;6252182;28;20057;-75
2023/12/31 06:06:17;;;;;;;70.10;40.85;;;;;;;;;;6249951;28;20040;-74
2023/12/31 06:09:18;;;;;;;67.97;38.63;;;;;;;;;;6250922;28;20108;-73
2023/12/31 06:12:20;;;;;;;69.53;38.20;;;;;;;;;;6253178;28;20129;-74
2023/12/31 06:15:23;;;;;;;69.32;39.83;;;;;;;;;;6254211;28;20564;-74
2023/12/31 06:18:25;;;;;;;71.07;38.53;;;;;;;;;;6253340;28;20045;-74
2023/12/31 06:21:27;;;;;;;67.70;39.08;;;;;;;;;;6251062;28;20057;-74
2023/12/31 06:24:29;;;;;;;69.13;39.13;;;;;;;;;;6252186;28;20063;-74
2023/12/31 06:27:31;;;;;;;69.22;40.58;;;;;;;;;;6253076;28;20049;-74
2023/12/31 06:30:34;;;;;;;69.10;39.47;;;;;;;;;;6250699;28;20059;-75
2023/12/31 06:33:36;;;;;;;70.10;40.97;;;;;;;;;;6252531;28;20049;-73
2023/12/31 06:36:38;;;;;;;68.60;40.45;;;;;;;;;;6251761;28;20052;-73
2023/12/31 06:39:44;;;;;;;64.15;38.42;;;;;;;;;;6249799;28;20377;-74
2023/12/31 06:42:46;;;;;;;71.35;41.15;;;;;;;;;;6252313;28;20045;-74
2023/12/31 06:45:49;;;;;;;74.47;41.72;;;;;;;;;;6254098;28;20053;-75
2023/12/31 06:48:52;;;;;;;71.43;41.70;;;;;;;;;;6252480;28;20053;-76
2023/12/31 06:51:54;;;;;;;69.00;41.13;;;;;;;;;;6251831;28;20378;-74
2023/12/31 06:54:55;;;;;;;69.40;40.40;;;;;;;;;;6252219;28;20746;-74
2023/12/31 06:57:57;;;;;;;75.97;41.25;;;;;;;;;;6233940;28;20057;-75
2023/12/31 07:01:01;;;;;;;75.93;41.92;;;;;;;;;;6250815;28;20359;-76
2023/12/31 07:04:03;;;;;;;74.72;43.10;;;;;;;;;;6252723;28;20057;-76
2023/12/31 07:07:05;;;;;;;68.70;41.22;;;;;;;;;;6253777;28;20064;-75
2023/12/31 07:10:08;;;;;;;71.38;42.85;;;;;;;;;;6252369;28;20374;-75
2023/12/31 07:13:10;;;;;;;75.43;41.53;;;;;;;;;;6250834;28;20049;-76
2023/12/31 07:16:15;;;;;;;70.45;41.65;;;;;;;;;;6252560;28;20480;-76
2023/12/31 07:19:17;;;;;;;74.13;41.72;;;;;;;;;;6253213;28;20053;-77
2023/12/31 07:22:20;;;;;;;70.70;40.85;;;;;;;;;;6250907;28;20057;-75
2023/12/31 07:25:23;;;;;;;76.35;43.45;;;;;;;;;;6249645;28;20060;-76
2023/12/31 07:28:25;;;;;;;79.00;43.88;;;;;;;;;;6252245;28;20053;-75
2023/12/31 07:31:28;;;;;;;74.78;43.53;;;;;;;;;;6250148;28;20052;-75
2023/12/31 07:34:30;;;;;;;74.20;42.43;;;;;;;;;;6253400;28;20054;-75
2023/12/31 07:37:33;;;;;;;77.55;41.83;;;;;;;;;;6249568;28;20326;-74
2023/12/31 07:40:35;;;;;;;76.95;43.63;;;;;;;;;;6249468;28;20057;-74
2023/12/31 07:43:37;;;;;;;83.32;44.55;;;;;;;;;;6252914;28;20048;-75
2023/12/31 07:46:40;;;;;;;79.60;42.85;;;;;;;;;;6252599;28;20084;-76
2023/12/31 07:49:42;;;;;;;74.93;43.53;;;;;;;;;;6251700;28;20060;-74
2023/12/31 07:52:44;;;;;;;79.88;43.80;;;;;;;;;;6251496;28;20060;-75
2023/12/31 07:55:47;;;;;;;79.88;43.90;;;;;;;;;;6250017;28;20072;-75
2023/12/31 07:58:49;;;;;;;74.28;42.83;;;;;;;;;;6252428;28;20053;-74
2023/12/31 08:01:52;;;;;;;79.05;44.45;;;;;;;;;;6266694;28;20057;-74
2023/12/31 08:04:54;;;;;;;82.75;44.72;;;;;;;;;;6255919;28;20057;-74
2023/12/31 08:07:56;;;;;;;85.97;45.15;;;;;;;;;;6257003;28;20060;-74
2023/12/31 08:10:59;;;;;;;81.45;45.45;;;;;;;;;;6256332;28;20045;-75
2023/12/31 08:14:01;;;;;;;74.45;41.72;;;;;;;;;;6254221;28;20363;-75
2023/12/31 08:17:05;;;;;;;75.45;42.63;;;;;;;;;;6288222;28;20107;-75
2023/12/31 08:20:07;;;;;;;78.97;42.20;;;;;;;;;;6257072;28;20060;-74
2023/12/31 08:23:09;;;;;;;83.43;44.63;;;;;;;;;;6257816;28;20255;-75
2023/12/31 08:26:11;;;;;;;77.22;44.58;;;;;;;;;;6255026;28;20103;-75
2023/12/31 08:29:13;;;;;;;84.38;44.58;;;;;;;;;;6254595;28;20061;-75
2023/12/31 08:32:18;;;;;;;77.53;42.60;;;;;;;;;;6253811;28;20260;-75
2023/12/31 08:35:21;;;;;;;80.28;43.45;;;;;;;;;;6255578;28;20045;-75
2023/12/31 08:38:22;;;;;;;78.30;43.40;;;;;;;;;;6257481;28;20057;-75
2023/12/31 08:41:25;;;;;;;86.57;44.90;;;;;;;;;;6252832;28;20063;-75
2023/12/31 08:44:27;;;;;;;84.13;45.90;;;;;;;;;;6254815;28;20350;-75
2023/12/31 08:47:30;;;;;;;83.50;46.13;;;;;;;;;;6254544;28;20068;-74
2023/12/31 08:50:32;;;;;;;86.93;47.73;;;;;;;;;;6254218;28;20482;-74
2023/12/31 08:53:34;;;;;;;82.78;46.17;;;;;;;;;;6253650;28;20455;-75
2023/12/31 08:56:36;;;;;;;84.72;45.95;;;;;;;;;;6253272;28;20068;-74
2023/12/31 08:59:38;;;;;;;79.93;44.45;;;;;;;;;;6255250;28;20252;-75
2023/12/31 09:02:42;;;;;;;86.38;47.63;;;;;;;;;;6255822;28;20278;-74
2023/12/31 09:05:43;;;;;;;86.45;45.65;;;;;;;;;;6255562;28;20528;-74
2023/12/31 09:08:46;;;;;;;81.00;45.35;;;;;;;;;;6256340;28;20045;-73
2023/12/31 09:11:48;;;;;;;82.72;46.55;;;;;;;;;;6243787;28;20056;-74
2023/12/31 09:14:50;;;;;;;89.53;48.78;;;;;;;;;;6253047;28;20256;-74
2023/12/31 09:17:54;;;;;;;83.63;46.60;;;;;;;;;;6255314;28;20096;-74
2023/12/31 09:20:56;;;;;;;89.13;47.92;;;;;;;;;;6251965;28;20060;-74
2023/12/31 09:23:58;;;;;;;86.00;45.85;;;;;;;;;;6255746;28;20270;-74
2023/12/31 09:26:59;;;;;;;87.60;46.75;;;;;;;;;;6253777;28;20135;-74
2023/12/31 09:30:02;;;;;;;85.45;46.03;;;;;;;;;;6252303;28;20049;-75
2023/12/31 09:33:05;;;;;;;93.10;47.53;;;;;;;;;;6255043;28;20057;-75
2023/12/31 09:36:07;;;;;;;84.93;44.80;;;;;;;;;;6254054;28;20065;-74
2023/12/31 09:39:09;;;;;;;84.80;46.22;;;;;;;;;;6255183;28;20127;-74
2023/12/31 09:42:13;;;;;;;90.32;46.10;;;;;;;;;;6251349;28;20085;-74
2023/12/31 09:45:17;;;;;;;85.80;44.38;;;;;;;;;;6251442;28;20322;-74
2023/12/31 09:48:20;;;;;;;86.78;46.30;;;;;;;;;;6253854;28;20044;-74
2023/12/31 09:51:22;;;;;;;85.78;44.70;;;;;;;;;;6255160;28;20064;-74
2023/12/31 09:54:24;;;;;;;82.35;45.50;;;;;;;;;;6254807;28;20174;-73
2023/12/31 09:57:26;;;;;;;93.43;47.22;;;;;;;;;;6253347;28;20068;-74
2023/12/31 10:00:28;;;;;;;88.72;46.20;;;;;;;;;;6254616;28;20115;-74
2023/12/31 10:03:32;;;;;;;86.50;43.70;;;;;;;;;;6254679;28;20060;-74
2023/12/31 10:06:34;;;;;;;83.15;44.33;;;;;;;;;;6252558;28;20057;-75
2023/12/31 10:09:37;;;;;;;87.40;46.33;;;;;;;;;;6253793;28;20045;-74
2023/12/31 10:12:39;;;;;;;91.22;44.92;;;;;;;;;;6253610;28;20041;-74
2023/12/31 10:15:41;;;;;;;78.50;42.65;;;;;;;;;;6252317;28;20061;-74
2023/12/31 10:18:44;;;;;;;81.68;42.95;;;;;;;;;;6252352;28;20128;-74
2023/12/31 10:21:46;;;;;;;88.30;43.90;;;;;;;;;;6250286;28;20053;-73
2023/12/31 10:24:48;;;;;;;88.20;44.33;;;;;;;;;;6246065;28;20080;-75
2023/12/31 10:27:50;;;;;;;84.03;43.58;;;;;;;;;;6284122;28;20041;-74
2023/12/31 10:30:52;;;;;;;85.28;44.08;;;;;;;;;;6253670;28;20061;-73
2023/12/31 10:33:55;;;;;;;89.28;42.88;;;;;;;;;;6226727;28;20053;-75
2023/12/31 10:37:03;;;;;;;83.07;44.03;;;;;;;;;;6228234;28;20057;-75
2023/12/31 10:40:19;;;;;;;82.18;44.17;;;;;;;;;;6227403;28;20456;-74
2023/12/31 10:43:22;;;;;;;83.75;43.65;;;;;;;;;;6224900;28;20056;-74
2023/12/31 10:46:25;;;;;;;84.85;44.28;;;;;;;;;;6228872;28;20114;-74
2023/12/31 10:49:31;;;;;;;88.82;43.22;;;;;;;;;;6232269;28;20053;-74
2023/12/31 10:52:34;;;;;;;85.10;45.13;;;;;;;;;;6251780;28;20049;-73
2023/12/31 10:55:37;;;;;;;87.90;44.50;;;;;;;;;;6253403;28;20330;-74
2023/12/31 10:58:39;;;;;;;84.72;43.80;;;;;;;;;;6247193;28;20056;-74
2023/12/31 11:01:42;;;;;;;95.20;45.30;;;;;;;;;;6250973;28;20346;-74
2023/12/31 11:04:46;;;;;;;85.10;43.35;;;;;;;;;;6249117;28;20076;-74
2023/12/31 11:07:48;;;;;;;83.10;42.85;;;;;;;;;;6253239;28;20053;-74
2023/12/31 11:10:50;;;;;;;84.63;42.35;;;;;;;;;;6250748;28;20045;-74
2023/12/31 11:13:55;;;;;;;84.40;43.67;;;;;;;;;;6252133;28;20121;-75
2023/12/31 11:17:13;;;;;;;79.07;40.15;;;;;;;;;;6249611;28;20121;-74
2023/12/31 11:20:33;;;;;;;86.93;42.72;;;;;;;;;;6249031;28;20053;-74
2023/12/31 11:23:41;;;;;;;84.22;41.83;;;;;;;;;;6251355;28;20053;-74
2023/12/31 11:26:43;;;;;;;83.28;41.08;;;;;;;;;;6249642;28;20049;-74
2023/12/31 11:29:46;;;;;;;83.15;42.08;;;;;;;;;;6252052;28;20053;-75
2023/12/31 11:32:47;;;;;;;75.85;38.95;;;;;;;;;;6251522;28;20083;-83
2023/12/31 11:35:53;;;;;;;75.97;38.75;;;;;;;;;;6251648;28;20383;-83
2023/12/31 11:38:58;;;;;;;76.72;36.92;;;;;;;;;;6251962;28;20108;-83
2023/12/31 11:42:06;;;;;;;71.20;37.92;;;;;;;;;;6252615;28;20108;-83
2023/12/31 11:45:42;;;;;;;73.47;37.50;;;;;;;;;;6251753;28;20118;-84
2023/12/31 11:48:44;;;;;;;68.28;35.88;;;;;;;;;;6249858;28;20111;-83
2023/12/31 11:51:54;;;;;;;67.05;35.00;;;;;;;;;;6253695;28;20331;-85
2023/12/31 11:54:59;;;;;;;66.50;34.72;;;;;;;;;;6252223;28;20053;-85
2023/12/31 11:58:03;;;;;;;68.78;34.65;;;;;;;;;;6251102;28;20054;-84
2023/12/31 12:01:05;;;;;;;66.13;34.88;;;;;;;;;;6250264;28;20061;-85
2023/12/31 12:04:08;;;;;;;71.85;35.63;;;;;;;;;;6251375;28;20057;-81
2023/12/31 12:07:11;;;;;;;71.85;36.28;;;;;;;;;;6251912;28;20057;-84
2023/12/31 12:10:14;;;;;;;74.13;36.43;;;;;;;;;;6248543;28;20045;-83
2023/12/31 12:13:16;;;;;;;70.72;35.75;;;;;;;;;;6250454;28;20061;-82
2023/12/31 12:16:18;;;;;;;71.20;35.58;;;;;;;;;;6248457;28;20060;-82
2023/12/31 12:19:20;;;;;;;67.30;34.08;;;;;;;;;;6252086;28;20076;-85
2023/12/31 12:22:24;;;;;;;66.72;34.28;;;;;;;;;;6250284;28;20056;-83
2023/12/31 12:25:25;;;;;;;62.78;33.08;;;;;;;;;;6235197;28;20092;-83
2023/12/31 12:28:27;;;;;;;66.53;33.25;;;;;;;;;;6250077;28;20053;-83
2023/12/31 12:31:34;;;;;;;58.97;31.52;;;;;;;;;;6252359;28;20116;-84
2023/12/31 12:34:39;;;;;;;69.05;34.70;;;;;;;;;;6251823;28;20054;-82
2023/12/31 12:37:51;;;;;;;68.95;34.67;;;;;;;;;;6249635;28;20108;-83
2023/12/31 12:41:01;;;;;;;74.78;35.25;;;;;;;;;;6249618;28;20053;-82
2023/12/31 12:44:10;;;;;;;66.07;32.28;;;;;;;;;;6250881;28;20236;-74
2023/12/31 12:47:12;;;;;;;65.25;34.58;;;;;;;;;;6252099;28;20056;-74
2023/12/31 12:50:14;;;;;;;70.53;34.47;;;;;;;;;;6252853;28;20064;-74
2023/12/31 12:53:18;;;;;;;63.63;33.05;;;;;;;;;;6286000;28;20060;-74
2023/12/31 12:56:19;;;;;;;68.30;34.30;;;;;;;;;;6286867;28;20386;-74
2023/12/31 12:59:21;;;;;;;73.93;36.13;;;;;;;;;;6253135;28;20355;-73
2023/12/31 13:02:23;;;;;;;68.30;37.20;;;;;;;;;;6254616;28;20059;-73
2023/12/31 13:05:25;;;;;;;67.88;35.13;;;;;;;;;;6255397;28;20053;-74
2023/12/31 13:08:28;;;;;;;68.88;35.72;;;;;;;;;;6254260;28;20049;-74
2023/12/31 13:11:30;;;;;;;70.03;37.07;;;;;;;;;;6255691;28;20057;-74
2023/12/31 13:14:33;;;;;;;67.50;37.10;;;;;;;;;;6286340;28;20064;-73
2023/12/31 13:17:35;;;;;;;70.60;36.00;;;;;;;;;;6253242;28;20127;-73
2023/12/31 13:20:37;;;;;;;63.65;33.35;;;;;;;;;;6254109;28;20056;-74
2023/12/31 13:23:40;;;;;;;64.40;34.10;;;;;;;;;;6256699;28;20363;-73
2023/12/31 13:26:42;;;;;;;70.43;35.47;;;;;;;;;;6253988;28;20065;-74
2023/12/31 13:29:44;;;;;;;64.50;34.95;;;;;;;;;;6281195;28;20472;-73
2023/12/31 13:32:46;;;;;;;66.25;35.53;;;;;;;;;;6253637;28;20057;-74
2023/12/31 13:35:47;;;;;;;63.47;34.00;;;;;;;;;;6254409;28;20057;-72
2023/12/31 13:38:50;;;;;;;62.47;33.95;;;;;;;;;;6254946;28;20284;-74
2023/12/31 13:41:53;;;;;;;70.50;36.75;;;;;;;;;;6249924;28;20061;-74
2023/12/31 13:44:55;;;;;;;65.95;34.40;;;;;;;;;;6253466;28;20260;-74
2023/12/31 13:47:56;;;;;;;64.05;35.25;;;;;;;;;;6254407;28;20053;-73
2023/12/31 13:50:58;;;;;;;60.63;33.75;;;;;;;;;;6251093;28;20264;-74
2023/12/31 13:54:02;;;;;;;57.65;32.58;;;;;;;;;;6249646;28;20100;-84
2023/12/31 13:57:04;;;;;;;61.27;33.27;;;;;;;;;;6249599;28;20259;-82
2023/12/31 14:00:08;;;;;;;63.50;34.03;;;;;;;;;;6251441;28;20108;-84
2023/12/31 14:03:09;;;;;;;62.65;34.53;;;;;;;;;;6234392;28;20065;-84
2023/12/31 14:06:12;;;;;;;62.00;33.03;;;;;;;;;;6249328;28;20116;-83
2023/12/31 14:09:15;;;;;;;60.63;32.33;;;;;;;;;;6253731;28;20061;-83
2023/12/31 14:12:20;;;;;;;64.22;33.60;;;;;;;;;;6250282;28;20451;-83
2023/12/31 14:15:22;;;;;;;61.47;33.55;;;;;;;;;;6253525;28;20238;-81
2023/12/31 14:18:24;;;;;;;61.75;32.97;;;;;;;;;;6255587;28;20057;-83
2023/12/31 14:21:29;;;;;;;61.17;32.30;;;;;;;;;;6230681;28;20049;-82
2023/12/31 14:24:33;;;;;;;60.97;31.30;;;;;;;;;;6259503;28;20049;-82
2023/12/31 14:27:35;;;;;;;59.50;31.73;;;;;;;;;;6229760;28;20057;-83
2023/12/31 14:30:37;;;;;;;67.05;35.20;;;;;;;;;;6229401;28;20050;-82
2023/12/31 14:33:39;;;;;;;67.55;34.92;;;;;;;;;;6226247;28;20190;-83
2023/12/31 14:36:41;;;;;;;70.10;35.45;;;;;;;;;;6227932;28;20103;-83
2023/12/31 14:39:44;;;;;;;70.43;36.08;;;;;;;;;;6230084;28;20057;-83
2023/12/31 14:42:46;;;;;;;76.25;35.63;;;;;;;;;;6229399;28;20054;-83
2023/12/31 14:45:48;;;;;;;71.22;35.70;;;;;;;;;;6225411;28;20489;-83
2023/12/31 14:48:50;;;;;;;72.35;35.47;;;;;;;;;;6227984;28;20050;-83
2023/12/31 14:51:53;;;;;;;77.43;37.40;;;;;;;;;;6225869;28;20053;-83
2023/12/31 14:55:02;;;;;;;70.93;34.17;;;;;;;;;;6252889;28;20147;-79
2023/12/31 14:58:04;;;;;;;68.28;34.58;;;;;;;;;;6226264;28;20073;-83
2023/12/31 15:01:06;;;;;;;71.47;37.70;;;;;;;;;;6208544;28;20054;-83
2023/12/31 15:04:08;;;;;;;67.45;35.65;;;;;;;;;;6224546;28;20585;-74
2023/12/31 15:07:10;;;;;;;70.15;35.33;;;;;;;;;;6228089;28;20309;-74
2023/12/31 15:10:14;;;;;;;64.72;34.47;;;;;;;;;;6223497;28;20049;-74
2023/12/31 15:13:16;;;;;;;72.53;35.25;;;;;;;;;;6226186;28;20125;-74
2023/12/31 15:16:18;;;;;;;70.00;36.15;;;;;;;;;;6225546;28;20064;-74
2023/12/31 15:19:20;;;;;;;68.53;35.95;;;;;;;;;;6227804;28;20053;-73
2023/12/31 15:22:22;;;;;;;67.03;33.90;;;;;;;;;;6258607;28;20119;-74
2023/12/31 15:25:25;;;;;;;68.15;34.90;;;;;;;;;;6226671;28;20057;-74
2023/12/31 15:28:27;;;;;;;66.03;33.90;;;;;;;;;;6230511;28;20053;-74
2023/12/31 15:31:29;;;;;;;64.97;34.53;;;;;;;;;;6250060;28;20279;-74
2023/12/31 15:34:31;;;;;;;70.30;34.80;;;;;;;;;;6248033;28;20053;-73
2023/12/31 15:37:34;;;;;;;63.70;34.00;;;;;;;;;;6226430;28;20061;-73
2023/12/31 15:40:39;;;;;;;67.93;35.50;;;;;;;;;;6227304;28;20307;-73
2023/12/31 15:43:40;;;;;;;64.88;31.20;;;;;;;;;;6225947;28;20060;-74
2023/12/31 15:46:42;;;;;;;60.08;31.63;;;;;;;;;;6218301;28;20113;-74
2023/12/31 15:49:44;;;;;;;59.38;29.65;;;;;;;;;;6265232;28;20091;-73
2023/12/31 15:52:46;;;;;;;57.65;30.83;;;;;;;;;;6242911;28;20100;-74
2023/12/31 15:55:50;;;;;;;65.53;30.05;;;;;;;;;;6227686;28;20054;-73
2023/12/31 15:58:52;;;;;;;63.30;33.00;;;;;;;;;;6227677;28;20049;-74
2023/12/31 16:01:56;;;;;;;54.38;30.40;;;;;;;;;;6226964;28;20053;-73
2023/12/31 16:04:58;;;;;;;;;;;;;;;;;;6225608;28;20097;-74
2023/12/31 16:08:00;;;;;;;60.10;30.63;;;;;;;;;;6225617;28;19936;-73
2023/12/31 16:11:03;;;;;;;62.42;32.83;;;;;;;;;;6227843;28;20057;-74
2023/12/31 16:14:05;;;;;;;58.55;31.95;;;;;;;;;;6224405;28;20097;-74
2023/12/31 16:17:07;;;;;;;60.20;30.73;;;;;;;;;;6226783;28;20057;-73
2023/12/31 16:20:10;;;;;;;66.07;32.78;;;;;;;;;;6227451;28;20183;-73
2023/12/31 16:23:12;;;;;;;67.05;32.25;;;;;;;;;;6225980;28;20069;-74
2023/12/31 16:26:16;;;;;;;61.17;31.88;;;;;;;;;;6229434;28;20053;-74
2023/12/31 16:29:18;;;;;;;64.13;31.33;;;;;;;;;;6232093;28;20054;-74
2023/12/31 16:32:20;;;;;;;60.28;31.20;;;;;;;;;;6230094;28;20061;-72
2023/12/31 16:35:22;;;;;;;66.72;31.92;;;;;;;;;;6230142;28;20076;-74
2023/12/31 16:38:24;;;;;;;57.08;30.27;;;;;;;;;;6231698;28;20072;-76
2023/12/31 16:41:27;;;;;;;62.65;32.13;;;;;;;;;;6229775;28;20545;-75
2023/12/31 16:44:29;;;;;;;61.75;31.65;;;;;;;;;;6230722;28;20058;-73
2023/12/31 16:47:31;;;;;;;67.50;33.38;;;;;;;;;;6229147;28;20054;-74
2023/12/31 16:50:34;;;;;;;60.17;30.95;;;;;;;;;;6230005;28;20054;-75
2023/12/31 16:53:35;;;;;;;66.35;31.70;;;;;;;;;;6229764;28;20061;-75
2023/12/31 16:56:39;;;;;;;61.38;31.98;;;;;;;;;;6228709;28;20100;-74
2023/12/31 16:59:41;;;;;;;66.43;32.30;;;;;;;;;;6230906;28;20058;-74
2023/12/31 17:02:43;;;;;;;63.65;32.63;;;;;;;;;;6230354;28;20053;-75
2023/12/31 17:05:46;;;;;;;68.78;33.17;;;;;;;;;;6229963;28;20145;-74
2023/12/31 17:08:48;;;;;;;72.65;33.00;;;;;;;;;;6227479;28;20046;-74
2023/12/31 17:11:51;;;;;;;67.45;32.72;;;;;;;;;;6243299;28;20081;-74
2023/12/31 17:14:53;;;;;;;70.53;32.57;;;;;;;;;;6261858;28;20068;-73
2023/12/31 17:17:55;;;;;;;68.53;33.53;;;;;;;;;;6228275;28;20414;-74
2023/12/31 17:20:57;;;;;;;66.75;33.20;;;;;;;;;;6225696;28;20292;-74
2023/12/31 17:23:59;;;;;;;69.25;33.33;;;;;;;;;;6223124;28;20138;-73
2023/12/31 17:27:03;;;;;;;76.32;36.10;;;;;;;;;;6228768;28;20283;-74
2023/12/31 17:30:06;;;;;;;68.93;35.00;;;;;;;;;;6230469;28;20140;-74
2023/12/31 17:33:08;;;;;;;70.80;33.70;;;;;;;;;;6229686;28;20058;-73
2023/12/31 17:36:10;;;;;;;72.72;35.20;;;;;;;;;;6229487;28;20054;-74
2023/12/31 17:39:12;;;;;;;72.55;36.28;;;;;;;;;;6226807;28;20149;-74
2023/12/31 17:42:16;;;;;;;80.15;37.53;;;;;;;;;;6227383;28;20120;-73
2023/12/31 17:45:18;;;;;;;81.90;36.83;;;;;;;;;;6229425;28;20054;-74